Flight Number: AVA1510 Duration: 9:45
Departure: Hong Kong Intl Airport (VHHH) at 10:15 Distance: 3858.09 Nm
Arrival: Moscow Sheremetyevo (UUEE) at 20:00 Equipment: B747

Weather Information
Hong Kong Inter-National Airport, Hong Kong (VHHH) 22-20N 114-11E 24M Jun 19, 2024 - 10:00 AM EDT / 2024.06.19 1400 UTC
Wind: from the SSE (150 degrees) at 6 MPH (5 KT) (direction variable):0
Visibility: greater than 7 mile(s):0
Sky conditions: mostly clear Temperature: 86 F (30 C) Heat index: 99.3 F (37.4 C):1 Dew Point: 78 F (26 C) Relative Humidity: 79% Pressure (altimeter): 29.68 in. Hg (1005 hPa)
ob: VHHH 191400Z 15005KT 110V180 9999 FEW010 30/26 Q1005 NOSIG cycle: 14
Sunrise: 21:43 Sunset: 11:08 (UTC)

Moscow / Sheremet'Ye , Russia (UUEE) 55-59N 037-30E Jun 19, 2024 - 10:00 AM EDT / 2024.06.19 1400 UTC
Wind: from the WSW (240 degrees) at 13 MPH (12 KT):0
Visibility: greater than 7 mile(s):0 Temperature: 75 F (24 C) Dew Point: 55 F (13 C) Relative Humidity: 50% Pressure (altimeter): 29.88 in. Hg (1012 hPa)
ob: UUEE 191400Z 24006MPS CAVOK 24/13 Q1012 R24L/CLRD62 R24C/CLRD62 NOSIG cycle: 14
Sunrise: 00:49 Sunset: 18:14 (UTC)

TAF:2024/06/19 12:21 TAF UUEE 191050Z 1912/2012 23006MPS 9999 SCT016 TX26/1914Z TN18/2003Z TEMPO 1912/1920 25009G14MPS TEMPO 1920/2006 23009G14MPS -TSRA BKN020CB TEMPO 2006/2012 30010G17MPS 3000 -TSRA FEW006 BKN016CB

Previous Pireps for this route
Date Flightnr Aircraft Flight time Fuel used Landing rate On time
2016-12-11AVA1510B74709.01145474-218Yes
(pireps marked green are flown by you)

Route map